4 De Coeur — FW6599 — position and weather

sailwx.info

Track history (hours):
 
Tides and Currents Weather Stations Pressure Air Temp Water Temp Dewpoint Dewpoint Depression Visibility Wind Speed Wind Dir Waves Ship Positions

4 De Coeur

Last reported at 2017-Aug-17 15:46 UTC. Time now 2017-Aug-23 10:06 UTC.
Position N 47°33' W 002°54'.

Length 11 m.

Type: Pleasure craft. MMSI: 227523340.

Date/timePositionNaut miles runAvg speedWind from/ knotsBaromVisibWave heightAir tempDewpointWater temp
2017-Aug-17 15:46N 47°33' W 002°54'0 0.0
2017-Aug-17 15:28N 47°33' W 002°54'1 2.1
2017-Aug-17 15:00N 47°32' W 002°55'2 4.3
2017-Aug-17 14:30N 47°30' W 002°57'2 4.9
2017-Aug-17 14:00N 47°28' W 002°59'3 5.4
2017-Aug-17 13:30N 47°27' W 003°02'2 3.2
2017-Aug-17 13:00N 47°26' W 003°04'2 3.6
2017-Aug-17 12:30N 47°24' W 003°05'2 3.0
2017-Aug-17 12:00N 47°23' W 003°06'2 3.8
2017-Aug-17 11:30N 47°21' W 003°08'1 1.3
2017-Aug-17 11:00N 47°21' W 003°08'1 0.0
2017-Aug-15 09:47N 47°21' W 003°09'0 0.6
2017-Aug-15 09:28N 47°21' W 003°09'0 0.2
2017-Aug-15 09:00N 47°21' W 003°09'0 0.6
2017-Aug-15 08:30N 47°21' W 003°09'0 0.5
2017-Aug-15 08:00N 47°21' W 003°09'1 1.7
2017-Aug-15 07:30N 47°21' W 003°08'2 4.7
2017-Aug-15 06:58N 47°21' W 003°04'2 4.6
2017-Aug-15 06:30N 47°22' W 003°01'2 3.8
2017-Aug-15 05:59N 47°22' W 002°58'1 2.7
2017-Aug-15 05:29N 47°23' W 002°57'0 0.0
2017-Aug-14 14:25N 47°23' W 002°57'1 3.1
2017-Aug-14 14:00N 47°24' W 002°56'1 2.9
2017-Aug-14 13:30N 47°25' W 002°57'2 4.8
2017-Aug-14 13:00N 47°28' W 002°57'2 3.2
2017-Aug-14 12:29N 47°29' W 002°57'1 2.4
2017-Aug-14 12:00N 47°30' W 002°55'1 3.0
2017-Aug-14 11:30N 47°32' W 002°54'1 1.9
2017-Aug-14 10:58N 47°33' W 002°54'0 0.0
2017-Aug-14 10:27N 47°33' W 002°54'0 0.0
2017-Aug-13 14:06N 47°33' W 002°54'0 0.0
2017-Aug-13 13:57N 47°33' W 002°54'0 0.0
2017-Aug-13 13:27N 47°33' W 002°54'0 0.0
2017-Aug-13 13:00N 47°33' W 002°54'0 0.0
2017-Aug-13 12:30N 47°33' W 002°54'0 0.0
2017-Aug-13 12:00N 47°33' W 002°54'0 0.0
2017-Aug-13 11:30N 47°33' W 002°54'0 0.0
2017-Aug-13 11:00N 47°33' W 002°54'0 0.0
2017-Aug-13 10:30N 47°33' W 002°54'0 0.0
2017-Aug-13 10:00N 47°33' W 002°54'0 0.0
2017-Aug-13 09:30N 47°33' W 002°54'0 0.0
2017-Aug-11 10:18N 47°33' W 002°54'1 2.4
2017-Aug-11 10:00N 47°32' W 002°55'3 5.4
2017-Aug-11 09:30N 47°35' W 002°53'3 5.3
2017-Aug-11 09:00N 47°37' W 002°50'1 2.5
2017-Aug-11 08:30N 47°35' W 002°49'1 2.6
2017-Aug-11 08:00N 47°34' W 002°50'1 2.7
2017-Aug-11 07:30N 47°34' W 002°52'1 2.2
2017-Aug-11 07:00N 47°34' W 002°53'2 4.3
2017-Aug-11 06:30N 47°33' W 002°55'1 1.4
2017-Aug-11 06:00N 47°32' W 002°55'  
2017-Aug-07 17:27N 47°33' W 002°54'1 1.8
2017-Aug-07 17:00N 47°32' W 002°55'2 4.9
2017-Aug-07 16:30N 47°30' W 002°56'2 4.7
2017-Aug-07 16:00N 47°28' W 002°58'  
Track history (hours):
 
Tides and Currents Weather Stations Pressure Air Temp Water Temp Dewpoint Dewpoint Depression Visibility Wind Speed Wind Dir Waves Ship Positions

4 De Coeur

Last reported at 2017-Aug-17 15:46 UTC. Time now 2017-Aug-23 10:06 UTC.
Position N 47°33' W 002°54'.

Length 11 m.

Type: Pleasure craft. MMSI: 227523340.

Date/timePositionNaut miles runAvg speedWind from/ knotsBaromVisibWave heightAir tempDewpointWater temp
2017-Aug-17 15:46N 47°33' W 002°54'0 0.0
2017-Aug-17 15:28N 47°33' W 002°54'1 2.1
2017-Aug-17 15:00N 47°32' W 002°55'2 4.3
2017-Aug-17 14:30N 47°30' W 002°57'2 4.9
2017-Aug-17 14:00N 47°28' W 002°59'3 5.4
2017-Aug-17 13:30N 47°27' W 003°02'2 3.2
2017-Aug-17 13:00N 47°26' W 003°04'2 3.6
2017-Aug-17 12:30N 47°24' W 003°05'2 3.0
2017-Aug-17 12:00N 47°23' W 003°06'2 3.8
2017-Aug-17 11:30N 47°21' W 003°08'1 1.3
2017-Aug-17 11:00N 47°21' W 003°08'1 0.0
2017-Aug-15 09:47N 47°21' W 003°09'0 0.6
2017-Aug-15 09:28N 47°21' W 003°09'0 0.2
2017-Aug-15 09:00N 47°21' W 003°09'0 0.6
2017-Aug-15 08:30N 47°21' W 003°09'0 0.5
2017-Aug-15 08:00N 47°21' W 003°09'1 1.7
2017-Aug-15 07:30N 47°21' W 003°08'2 4.7
2017-Aug-15 06:58N 47°21' W 003°04'2 4.6
2017-Aug-15 06:30N 47°22' W 003°01'2 3.8
2017-Aug-15 05:59N 47°22' W 002°58'1 2.7
2017-Aug-15 05:29N 47°23' W 002°57'0 0.0
2017-Aug-14 14:25N 47°23' W 002°57'1 3.1
2017-Aug-14 14:00N 47°24' W 002°56'1 2.9
2017-Aug-14 13:30N 47°25' W 002°57'2 4.8
2017-Aug-14 13:00N 47°28' W 002°57'2 3.2
2017-Aug-14 12:29N 47°29' W 002°57'1 2.4
2017-Aug-14 12:00N 47°30' W 002°55'1 3.0
2017-Aug-14 11:30N 47°32' W 002°54'1 1.9
2017-Aug-14 10:58N 47°33' W 002°54'0 0.0
2017-Aug-14 10:27N 47°33' W 002°54'0 0.0
2017-Aug-13 14:06N 47°33' W 002°54'0 0.0
2017-Aug-13 13:57N 47°33' W 002°54'0 0.0
2017-Aug-13 13:27N 47°33' W 002°54'0 0.0
2017-Aug-13 13:00N 47°33' W 002°54'0 0.0
2017-Aug-13 12:30N 47°33' W 002°54'0 0.0
2017-Aug-13 12:00N 47°33' W 002°54'0 0.0
2017-Aug-13 11:30N 47°33' W 002°54'0 0.0
2017-Aug-13 11:00N 47°33' W 002°54'0 0.0
2017-Aug-13 10:30N 47°33' W 002°54'0 0.0
2017-Aug-13 10:00N 47°33' W 002°54'0 0.0
2017-Aug-13 09:30N 47°33' W 002°54'0 0.0
2017-Aug-11 10:18N 47°33' W 002°54'1 2.4
2017-Aug-11 10:00N 47°32' W 002°55'3 5.4
2017-Aug-11 09:30N 47°35' W 002°53'3 5.3
2017-Aug-11 09:00N 47°37' W 002°50'1 2.5
2017-Aug-11 08:30N 47°35' W 002°49'1 2.6
2017-Aug-11 08:00N 47°34' W 002°50'1 2.7
2017-Aug-11 07:30N 47°34' W 002°52'1 2.2
2017-Aug-11 07:00N 47°34' W 002°53'2 4.3
2017-Aug-11 06:30N 47°33' W 002°55'1 1.4
2017-Aug-11 06:00N 47°32' W 002°55'  
2017-Aug-07 17:27N 47°33' W 002°54'1 1.8
2017-Aug-07 17:00N 47°32' W 002°55'2 4.9
2017-Aug-07 16:30N 47°30' W 002°56'2 4.7
2017-Aug-07 16:00N 47°28' W 002°58'  

Dump ship's entire track history